createdAt,value
2018-05-03T00:00:23.206Z,1002.5
2018-05-03T00:01:25.762Z,1002.5
2018-05-03T00:02:27.819Z,1002.5
2018-05-03T00:03:29.995Z,1002.5
2018-05-03T00:04:32.353Z,1002.5
2018-05-03T00:05:34.527Z,1002.5
2018-05-03T00:06:37.951Z,1002.5
2018-05-03T00:07:39.914Z,1002.5
2018-05-03T00:08:44.019Z,1002.5
2018-05-03T00:09:46.018Z,1002.5
2018-05-03T00:10:48.761Z,1002.5
2018-05-03T00:11:50.787Z,1002.5
2018-05-03T00:12:53.310Z,1002.4
2018-05-03T00:13:55.414Z,1002.5
2018-05-03T00:14:58.739Z,1002.5
2018-05-03T00:16:01.247Z,1002.5
2018-05-03T00:17:03.825Z,1002.5
2018-05-03T00:18:06.129Z,1002.5
2018-05-03T00:19:08.286Z,1002.5
2018-05-03T00:20:10.335Z,1002.5
2018-05-03T00:21:12.486Z,1002.5
2018-05-03T00:22:16.200Z,1002.5
2018-05-03T00:23:19.310Z,1002.5
2018-05-03T00:24:29.424Z,1002.6
2018-05-03T00:25:31.089Z,1002.5
2018-05-03T00:26:33.779Z,1002.6
2018-05-03T00:27:36.525Z,1002.5
2018-05-03T00:28:38.823Z,1002.6
2018-05-03T00:29:40.933Z,1002.6
2018-05-03T00:30:43.122Z,1002.6
2018-05-03T00:31:46.618Z,1002.7
2018-05-03T00:32:49.943Z,1002.7
2018-05-03T00:33:52.052Z,1002.6
2018-05-03T00:34:54.041Z,1002.7
2018-05-03T00:35:56.358Z,1002.7
2018-05-03T00:36:58.399Z,1002.7
2018-05-03T00:38:00.944Z,1002.7
2018-05-03T00:39:03.163Z,1002.7
2018-05-03T00:40:05.304Z,1002.7
2018-05-03T00:41:09.118Z,1002.7
2018-05-03T00:42:13.698Z,1002.7
2018-05-03T00:43:15.624Z,1002.7
2018-05-03T00:44:18.818Z,1002.7
2018-05-03T00:45:21.753Z,1002.7
2018-05-03T00:46:24.159Z,1002.7
2018-05-03T00:47:26.197Z,1002.7
2018-05-03T00:48:28.280Z,1002.7
2018-05-03T00:49:32.259Z,1002.7
2018-05-03T00:50:41.879Z,1002.7
2018-05-03T00:51:43.980Z,1002.7
2018-05-03T00:52:45.961Z,1002.7
2018-05-03T00:53:47.941Z,1002.8
2018-05-03T00:54:49.900Z,1002.7
2018-05-03T00:55:57.796Z,1002.7
2018-05-03T00:56:59.577Z,1002.8
2018-05-03T00:58:01.538Z,1002.7
2018-05-03T00:59:03.709Z,1002.8
2018-05-03T01:00:05.694Z,1002.8
2018-05-03T01:01:08.022Z,1002.8
2018-05-03T01:02:10.072Z,1002.8
2018-05-03T01:03:12.077Z,1002.8
2018-05-03T01:04:14.063Z,1002.8
2018-05-03T01:05:16.017Z,1002.8
2018-05-03T01:06:18.443Z,1002.9
2018-05-03T01:07:21.768Z,1002.9
2018-05-03T01:08:23.765Z,1002.9
2018-05-03T01:09:25.922Z,1002.9
2018-05-03T01:10:28.197Z,1002.9
2018-05-03T01:11:30.409Z,1002.9
2018-05-03T01:12:32.821Z,1002.9
2018-05-03T01:13:34.891Z,1003.0
2018-05-03T01:14:37.098Z,1003.0
2018-05-03T01:15:39.321Z,1002.9
2018-05-03T01:16:42.011Z,1003.0
2018-05-03T01:17:44.195Z,1002.9
2018-05-03T01:18:46.610Z,1002.9
2018-05-03T01:19:48.897Z,1002.9
2018-05-03T01:20:56.518Z,1002.9
2018-05-03T01:22:00.215Z,1003.0
2018-05-03T01:23:02.579Z,1002.9
2018-05-03T01:24:05.961Z,1002.9
2018-05-03T01:25:08.580Z,1003.0
2018-05-03T01:26:10.833Z,1003.0
2018-05-03T01:27:12.997Z,1003.0
2018-05-03T01:28:15.240Z,1003.0
2018-05-03T01:29:18.696Z,1003.0
2018-05-03T01:30:20.967Z,1003.0
2018-05-03T01:31:25.011Z,1003.1
2018-05-03T01:32:27.021Z,1003.1
2018-05-03T01:33:29.935Z,1003.1
2018-05-03T01:34:32.319Z,1003.1
2018-05-03T01:35:42.692Z,1003.1
2018-05-03T01:36:44.385Z,1003.1
2018-05-03T01:37:47.288Z,1003.1
2018-05-03T01:38:49.412Z,1003.1
2018-05-03T01:39:51.502Z,1003.2
2018-05-03T01:40:53.547Z,1003.2
2018-05-03T01:41:55.594Z,1003.2
2018-05-03T01:42:57.598Z,1003.2
2018-05-03T01:43:59.586Z,1003.3
2018-05-03T01:45:01.708Z,1003.3
2018-05-03T01:46:04.038Z,1003.3
2018-05-03T01:47:06.317Z,1003.3
2018-05-03T01:48:08.305Z,1003.3
2018-05-03T01:49:10.526Z,1003.3
2018-05-03T01:50:12.536Z,1003.3
2018-05-03T01:51:14.605Z,1003.3
2018-05-03T01:52:18.303Z,1003.4
2018-05-03T01:53:20.328Z,1003.4
2018-05-03T01:54:22.707Z,1003.4
2018-05-03T01:55:35.660Z,1003.3
2018-05-03T01:56:37.562Z,1003.3
2018-05-03T01:57:39.616Z,1003.3
2018-05-03T01:58:46.027Z,1003.3
2018-05-03T01:59:49.432Z,1003.4
2018-05-03T02:00:51.532Z,1003.4
2018-05-03T02:01:57.012Z,1003.4
2018-05-03T02:02:58.802Z,1003.4
2018-05-03T02:04:00.841Z,1003.4
2018-05-03T02:05:02.948Z,1003.4
2018-05-03T02:06:06.545Z,1003.5
2018-05-03T02:07:12.339Z,1003.5
2018-05-03T02:08:14.996Z,1003.5
2018-05-03T02:09:20.090Z,1003.5
2018-05-03T02:10:23.126Z,1003.6
2018-05-03T02:11:25.228Z,1003.7
2018-05-03T02:12:27.325Z,1003.6
2018-05-03T02:13:29.403Z,1003.6
2018-05-03T02:14:36.142Z,1003.6
2018-05-03T02:15:38.178Z,1003.7
2018-05-03T02:16:40.478Z,1003.7
2018-05-03T02:17:42.531Z,1003.7
2018-05-03T02:18:47.794Z,1003.7
2018-05-03T02:19:51.361Z,1003.8
2018-05-03T02:20:53.314Z,1003.7
2018-05-03T02:21:55.497Z,1003.7
2018-05-03T02:22:58.427Z,1003.8
2018-05-03T02:24:00.491Z,1003.8
2018-05-03T02:25:02.732Z,1003.8
2018-05-03T02:26:05.028Z,1003.8
2018-05-03T02:27:11.145Z,1003.8
2018-05-03T02:28:14.149Z,1003.8
2018-05-03T02:29:16.294Z,1003.8
2018-05-03T02:30:19.108Z,1003.8
2018-05-03T02:31:21.435Z,1003.9
2018-05-03T02:32:23.688Z,1003.8
2018-05-03T02:33:26.351Z,1003.8
2018-05-03T02:34:28.417Z,1003.9
2018-05-03T02:35:35.073Z,1003.9
2018-05-03T02:36:36.986Z,1003.9
2018-05-03T02:37:39.742Z,1003.9
2018-05-03T02:38:41.936Z,1003.9
2018-05-03T02:39:44.189Z,1004.0
2018-05-03T02:40:48.649Z,1004.0
2018-05-03T02:41:50.730Z,1004.0
2018-05-03T02:42:53.307Z,1004.0
2018-05-03T02:43:55.370Z,1004.0
2018-05-03T02:44:57.720Z,1004.0
2018-05-03T02:46:00.380Z,1004.1
2018-05-03T02:47:02.422Z,1004.1
2018-05-03T02:48:04.620Z,1004.1
2018-05-03T02:49:06.657Z,1004.2
2018-05-03T02:50:08.794Z,1004.1
2018-05-03T02:51:10.972Z,1004.1
2018-05-03T02:52:13.181Z,1004.1
2018-05-03T02:53:17.087Z,1004.1
2018-05-03T02:54:19.255Z,1004.1
2018-05-03T02:55:36.737Z,1004.2
2018-05-03T02:56:38.709Z,1004.2
2018-05-03T02:57:45.769Z,1004.2
2018-05-03T02:58:47.773Z,1004.2
2018-05-03T02:59:52.469Z,1004.3
2018-05-03T03:00:57.555Z,1004.2
2018-05-03T03:01:59.727Z,1004.3
2018-05-03T03:03:01.792Z,1004.3
2018-05-03T03:04:10.637Z,1004.2
2018-05-03T03:05:12.133Z,1004.2
2018-05-03T03:06:18.029Z,1004.2
2018-05-03T03:07:21.860Z,1004.2
2018-05-03T03:08:23.812Z,1004.2
2018-05-03T03:09:25.836Z,1004.2
2018-05-03T03:10:28.590Z,1004.2
2018-05-03T03:11:30.612Z,1004.1
2018-05-03T03:12:32.852Z,1004.2
2018-05-03T03:13:34.903Z,1004.2
2018-05-03T03:14:37.002Z,1004.3
2018-05-03T03:15:39.350Z,1004.2
2018-05-03T03:16:41.390Z,1004.2
2018-05-03T03:17:43.638Z,1004.2
2018-05-03T03:18:46.347Z,1004.2
2018-05-03T03:19:49.222Z,1004.3
2018-05-03T03:20:51.277Z,1004.2
2018-05-03T03:21:53.514Z,1004.2
2018-05-03T03:22:56.822Z,1004.2
2018-05-03T03:23:58.864Z,1004.2
2018-05-03T03:25:01.129Z,1004.3
2018-05-03T03:26:03.277Z,1004.3
2018-05-03T03:27:05.299Z,1004.3
2018-05-03T03:28:09.169Z,1004.3
2018-05-03T03:29:11.733Z,1004.2
2018-05-03T03:30:15.567Z,1004.2
2018-05-03T03:31:18.093Z,1004.2
2018-05-03T03:32:22.630Z,1004.2
2018-05-03T03:33:29.972Z,1004.3
2018-05-03T03:34:32.231Z,1004.3
2018-05-03T03:35:34.332Z,1004.3
2018-05-03T03:36:36.427Z,1004.3
2018-05-03T03:37:38.499Z,1004.3
2018-05-03T03:38:40.433Z,1004.3
2018-05-03T03:39:42.590Z,1004.3
2018-05-03T03:40:44.563Z,1004.3
2018-05-03T03:41:47.326Z,1004.4
2018-05-03T03:42:57.680Z,1004.4
2018-05-03T03:43:59.747Z,1004.4
2018-05-03T03:45:05.399Z,1004.4
2018-05-03T03:46:07.214Z,1004.4
2018-05-03T03:47:09.476Z,1004.4
2018-05-03T03:48:13.307Z,1004.4
2018-05-03T03:49:15.239Z,1004.5
2018-05-03T03:50:17.181Z,1004.5
2018-05-03T03:51:19.558Z,1004.5
2018-05-03T03:52:21.519Z,1004.5
2018-05-03T03:53:25.828Z,1004.5
2018-05-03T03:54:36.017Z,1004.5
2018-05-03T03:55:37.959Z,1004.5
2018-05-03T03:56:42.039Z,1004.5
2018-05-03T03:57:48.840Z,1004.5
2018-05-03T03:59:00.020Z,1004.5
2018-05-03T04:00:02.908Z,1004.5
2018-05-03T04:01:04.963Z,1004.5
2018-05-03T04:02:07.843Z,1004.5
2018-05-03T04:03:09.968Z,1004.6
2018-05-03T04:04:12.631Z,1004.6
2018-05-03T04:05:18.743Z,1004.6
2018-05-03T04:06:20.796Z,1004.6
2018-05-03T04:07:22.924Z,1004.6
2018-05-03T04:08:25.586Z,1004.7
2018-05-03T04:09:27.835Z,1004.7
2018-05-03T04:10:29.968Z,1004.7
2018-05-03T04:11:32.134Z,1004.6
2018-05-03T04:12:34.234Z,1004.7
2018-05-03T04:13:36.521Z,1004.7
2018-05-03T04:14:38.765Z,1004.7
2018-05-03T04:15:46.136Z,1004.8
2018-05-03T04:16:48.322Z,1004.8
2018-05-03T04:17:50.678Z,1004.8
2018-05-03T04:18:55.350Z,1004.9
2018-05-03T04:20:01.814Z,1004.9
2018-05-03T04:21:03.755Z,1004.9
2018-05-03T04:22:05.795Z,1004.9
2018-05-03T04:23:07.938Z,1004.9
2018-05-03T04:24:13.213Z,1004.9
2018-05-03T04:25:21.093Z,1004.9
2018-05-03T04:26:23.567Z,1004.9
2018-05-03T04:27:25.944Z,1004.9
2018-05-03T04:28:28.223Z,1004.9
2018-05-03T04:29:31.144Z,1004.9
2018-05-03T04:30:33.276Z,1004.9
2018-05-03T04:31:35.716Z,1004.8
2018-05-03T04:32:38.007Z,1004.9
2018-05-03T04:33:40.563Z,1004.8
2018-05-03T04:34:43.158Z,1004.9
2018-05-03T04:35:47.102Z,1004.9
2018-05-03T04:36:51.140Z,1005.0
2018-05-03T04:37:53.433Z,1005.0
2018-05-03T04:38:55.788Z,1005.0
2018-05-03T04:39:59.048Z,1005.1
2018-05-03T04:41:02.692Z,1005.0
2018-05-03T04:42:05.563Z,1005.1
2018-05-03T04:43:09.481Z,1005.1
2018-05-03T04:44:11.429Z,1005.1
2018-05-03T04:45:13.711Z,1005.1
2018-05-03T04:46:15.578Z,1005.1
2018-05-03T04:47:19.190Z,1005.2
2018-05-03T04:48:22.327Z,1005.2
2018-05-03T04:49:24.359Z,1005.2
2018-05-03T04:50:26.679Z,1005.3
2018-05-03T04:51:29.195Z,1005.3
2018-05-03T04:52:31.144Z,1005.3
2018-05-03T04:53:33.487Z,1005.3
2018-05-03T04:54:39.708Z,1005.3
2018-05-03T04:55:41.853Z,1005.3
2018-05-03T04:56:43.941Z,1005.3
2018-05-03T04:57:46.253Z,1005.3
2018-05-03T04:58:49.796Z,1005.4
2018-05-03T04:59:51.923Z,1005.4
2018-05-03T05:00:54.351Z,1005.5
2018-05-03T05:01:56.259Z,1005.5
2018-05-03T05:02:59.075Z,1005.5
2018-05-03T05:04:01.239Z,1005.6
2018-05-03T05:05:03.308Z,1005.5
2018-05-03T05:06:05.560Z,1005.6
2018-05-03T05:07:07.912Z,1005.6
2018-05-03T05:08:10.223Z,1005.6
2018-05-03T05:09:12.338Z,1005.6
2018-05-03T05:10:14.439Z,1005.6
2018-05-03T05:11:16.504Z,1005.6
2018-05-03T05:12:23.200Z,1005.7
2018-05-03T05:13:24.850Z,1005.7
2018-05-03T05:14:31.960Z,1005.7
2018-05-03T05:15:34.897Z,1005.8
2018-05-03T05:16:37.001Z,1005.8
2018-05-03T05:17:48.759Z,1005.8
2018-05-03T05:18:50.888Z,1005.8
2018-05-03T05:19:52.776Z,1005.9
2018-05-03T05:20:55.267Z,1005.8
2018-05-03T05:21:57.521Z,1005.9
2018-05-03T05:22:59.863Z,1005.9
2018-05-03T05:24:02.192Z,1005.9
2018-05-03T05:25:04.342Z,1005.9
2018-05-03T05:26:06.701Z,1006.0
2018-05-03T05:27:08.823Z,1006.0
2018-05-03T05:28:11.114Z,1006.0
2018-05-03T05:29:13.152Z,1006.0
2018-05-03T05:30:15.221Z,1006.0
2018-05-03T05:31:17.259Z,1006.1
2018-05-03T05:32:19.457Z,1006.1
2018-05-03T05:33:21.649Z,1006.1
2018-05-03T05:34:23.861Z,1006.3
2018-05-03T05:35:25.823Z,1006.3
2018-05-03T05:36:27.856Z,1006.3
2018-05-03T05:37:29.890Z,1006.4
2018-05-03T05:38:32.146Z,1006.4
2018-05-03T05:39:34.173Z,1006.3
2018-05-03T05:40:36.706Z,1006.3
2018-05-03T05:41:38.788Z,1006.4
2018-05-03T05:42:40.917Z,1006.4
2018-05-03T05:43:42.981Z,1006.4
2018-05-03T05:44:45.976Z,1006.5
2018-05-03T05:45:47.981Z,1006.6
2018-05-03T05:46:50.040Z,1006.7
2018-05-03T05:47:52.116Z,1006.7
2018-05-03T05:48:54.369Z,1006.8
2018-05-03T05:49:56.321Z,1006.7
2018-05-03T05:50:58.552Z,1006.8
2018-05-03T05:52:00.931Z,1006.8
2018-05-03T05:53:03.173Z,1006.8
2018-05-03T05:54:05.165Z,1006.8
2018-05-03T05:55:07.443Z,1006.8
2018-05-03T05:56:09.675Z,1006.8
2018-05-03T05:57:11.608Z,1006.8
2018-05-03T05:58:13.875Z,1006.8
2018-05-03T05:59:16.050Z,1006.9
2018-05-03T06:00:18.073Z,1006.9
2018-05-03T06:01:20.258Z,1006.9
2018-05-03T06:02:22.455Z,1006.9
2018-05-03T06:03:24.466Z,1006.9
2018-05-03T06:04:26.419Z,1007.0
2018-05-03T06:05:28.657Z,1007.0
2018-05-03T06:06:30.664Z,1007.1
2018-05-03T06:07:32.877Z,1007.0
2018-05-03T06:08:34.805Z,1007.0
2018-05-03T06:09:36.760Z,1007.0
2018-05-03T06:10:38.970Z,1007.0
2018-05-03T06:11:40.989Z,1007.1
2018-05-03T06:12:43.293Z,1007.1
2018-05-03T06:13:45.406Z,1007.1
2018-05-03T06:14:47.500Z,1007.1
2018-05-03T06:15:49.653Z,1007.2
2018-05-03T06:16:51.923Z,1007.2
2018-05-03T06:17:54.006Z,1007.2
2018-05-03T06:18:56.357Z,1007.2
2018-05-03T06:19:58.826Z,1007.2
2018-05-03T06:21:01.118Z,1007.2
2018-05-03T06:22:03.395Z,1007.2
2018-05-03T06:23:05.455Z,1007.2
2018-05-03T06:24:07.528Z,1007.3
2018-05-03T06:25:09.796Z,1007.3
2018-05-03T06:26:12.042Z,1007.3
2018-05-03T06:27:14.104Z,1007.3
2018-05-03T06:28:16.278Z,1007.3
2018-05-03T06:29:18.568Z,1007.3
2018-05-03T06:30:20.801Z,1007.4
2018-05-03T06:31:23.087Z,1007.4
2018-05-03T06:32:25.421Z,1007.4
2018-05-03T06:33:27.849Z,1007.4
2018-05-03T06:34:29.894Z,1007.4
2018-05-03T06:35:32.371Z,1007.4
2018-05-03T06:36:34.738Z,1007.4
2018-05-03T06:37:37.274Z,1007.5
2018-05-03T06:38:39.733Z,1007.5
2018-05-03T06:39:42.165Z,1007.5
2018-05-03T06:40:44.296Z,1007.6
2018-05-03T06:41:46.383Z,1007.5
2018-05-03T06:42:48.686Z,1007.7
2018-05-03T06:43:51.238Z,1007.7
2018-05-03T06:44:53.484Z,1007.8
2018-05-03T06:45:55.873Z,1007.9
2018-05-03T06:46:58.127Z,1007.9
2018-05-03T06:48:00.389Z,1008.1
2018-05-03T06:49:02.647Z,1008.2
2018-05-03T06:50:04.743Z,1008.3
2018-05-03T06:51:07.096Z,1008.2
2018-05-03T06:52:09.359Z,1008.1
2018-05-03T06:53:11.429Z,1008.1
2018-05-03T06:54:13.840Z,1008.2
2018-05-03T06:55:16.113Z,1008.1
2018-05-03T06:56:18.316Z,1008.1
2018-05-03T06:57:20.374Z,1008.1
2018-05-03T06:58:22.484Z,1008.0
2018-05-03T06:59:24.860Z,1008.0
2018-05-03T07:00:26.915Z,1008.0
2018-05-03T07:01:29.076Z,1008.0
2018-05-03T07:02:31.857Z,1008.1
2018-05-03T07:03:33.818Z,1008.0
2018-05-03T07:04:36.174Z,1008.1
2018-05-03T07:05:38.268Z,1008.0
2018-05-03T07:06:40.617Z,1008.1
2018-05-03T07:07:42.660Z,1008.0
2018-05-03T07:08:45.047Z,1008.1
2018-05-03T07:09:49.025Z,1008.1
2018-05-03T07:10:51.310Z,1008.1
2018-05-03T07:11:53.697Z,1008.1
2018-05-03T07:12:56.037Z,1008.1
2018-05-03T07:13:58.086Z,1008.1
2018-05-03T07:15:00.285Z,1008.1
2018-05-03T07:16:02.527Z,1008.0
2018-05-03T07:17:06.293Z,1008.0
2018-05-03T07:18:09.021Z,1008.0
2018-05-03T07:19:11.249Z,1008.1
2018-05-03T07:20:13.608Z,1008.2
2018-05-03T07:21:15.877Z,1008.2
2018-05-03T07:22:18.205Z,1008.3
2018-05-03T07:23:20.951Z,1008.3
2018-05-03T07:24:23.089Z,1008.3
2018-05-03T07:25:25.457Z,1008.4
2018-05-03T07:26:27.708Z,1008.5
2018-05-03T07:27:29.832Z,1008.7
2018-05-03T07:28:32.083Z,1008.7
2018-05-03T07:29:34.274Z,1008.6
2018-05-03T07:30:36.506Z,1008.5
2018-05-03T07:31:38.915Z,1008.4
2018-05-03T07:32:40.971Z,1008.4
2018-05-03T07:33:43.483Z,1008.5
2018-05-03T07:34:45.439Z,1008.6
2018-05-03T07:35:47.504Z,1008.6
2018-05-03T07:36:50.508Z,1008.7
2018-05-03T07:37:52.728Z,1008.8
2018-05-03T07:38:54.851Z,1008.7
2018-05-03T07:39:57.219Z,1008.8
2018-05-03T07:40:59.625Z,1008.9
2018-05-03T07:42:01.820Z,1008.9
2018-05-03T07:43:04.108Z,1009.0
2018-05-03T07:44:06.528Z,1008.9
2018-05-03T07:45:08.774Z,1009.1
2018-05-03T07:46:11.411Z,1009.1
2018-05-03T07:47:13.478Z,1009.1
2018-05-03T07:48:15.673Z,1008.9
2018-05-03T07:49:18.698Z,1008.7
2018-05-03T07:50:20.947Z,1008.6
2018-05-03T07:51:23.151Z,1008.8
2018-05-03T07:52:26.804Z,1008.9
2018-05-03T07:53:29.055Z,1009.1
2018-05-03T07:54:31.245Z,1009.0
2018-05-03T07:55:33.408Z,1008.9
2018-05-03T07:56:35.545Z,1009.1
2018-05-03T07:57:37.601Z,1009.0
2018-05-03T07:58:39.855Z,1008.8
2018-05-03T07:59:41.895Z,1009.1
2018-05-03T08:00:44.003Z,1009.1
2018-05-03T08:01:46.530Z,1008.9
2018-05-03T08:02:48.637Z,1008.7
2018-05-03T08:03:50.997Z,1008.6
2018-05-03T08:04:53.045Z,1008.7
2018-05-03T08:05:55.269Z,1008.6
2018-05-03T08:06:57.219Z,1008.6
2018-05-03T08:07:59.639Z,1008.7
2018-05-03T08:09:01.616Z,1008.7
2018-05-03T08:10:03.967Z,1008.6
2018-05-03T08:11:06.007Z,1008.6
2018-05-03T08:12:08.294Z,1008.6
2018-05-03T08:13:11.281Z,1008.7
2018-05-03T08:14:13.339Z,1008.7
2018-05-03T08:15:16.326Z,1008.7
2018-05-03T08:16:19.347Z,1008.8
2018-05-03T08:17:21.718Z,1008.8
2018-05-03T08:18:23.854Z,1008.8
2018-05-03T08:19:25.995Z,1008.7
2018-05-03T08:20:28.188Z,1008.8
2018-05-03T08:21:30.513Z,1008.7
2018-05-03T08:22:32.742Z,1008.8
2018-05-03T08:23:34.920Z,1008.8
2018-05-03T08:24:37.032Z,1008.8
2018-05-03T08:25:39.376Z,1008.8
2018-05-03T08:26:41.419Z,1008.8
2018-05-03T08:27:43.694Z,1008.8
2018-05-03T08:28:45.740Z,1008.8
2018-05-03T08:29:48.120Z,1008.9
2018-05-03T08:30:50.375Z,1008.9
2018-05-03T08:31:52.625Z,1008.9
2018-05-03T08:32:54.855Z,1008.8
2018-05-03T08:33:57.166Z,1008.9
2018-05-03T08:34:59.254Z,1009.1
2018-05-03T08:36:01.462Z,1009.1
2018-05-03T08:37:03.465Z,1009.1
2018-05-03T08:38:05.478Z,1009.1
2018-05-03T08:39:07.785Z,1009.0
2018-05-03T08:40:09.795Z,1009.0
2018-05-03T08:41:12.014Z,1008.9
2018-05-03T08:42:14.397Z,1009.0
2018-05-03T08:43:16.433Z,1009.0
2018-05-03T08:44:18.994Z,1009.0
2018-05-03T08:45:20.990Z,1009.0
2018-05-03T08:46:23.296Z,1009.0
2018-05-03T08:47:25.396Z,1009.2
2018-05-03T08:48:27.683Z,1009.3
2018-05-03T08:49:29.836Z,1009.4
2018-05-03T08:50:32.176Z,1009.6
2018-05-03T08:51:34.446Z,1009.9
2018-05-03T08:52:36.705Z,1009.8
2018-05-03T08:53:38.963Z,1009.5
2018-05-03T08:54:41.111Z,1009.3
2018-05-03T08:55:43.368Z,1009.3
2018-05-03T08:56:45.481Z,1009.4
2018-05-03T08:57:47.614Z,1009.5
2018-05-03T08:58:49.709Z,1009.4
2018-05-03T08:59:51.904Z,1009.4
2018-05-03T09:00:54.145Z,1009.5
2018-05-03T09:01:56.354Z,1009.5
2018-05-03T09:02:58.613Z,1009.6
2018-05-03T09:04:00.597Z,1009.7
2018-05-03T09:05:02.871Z,1009.4
2018-05-03T09:06:05.350Z,1009.3
2018-05-03T09:07:07.578Z,1009.4
2018-05-03T09:08:09.827Z,1009.6
2018-05-03T09:09:12.074Z,1009.9
2018-05-03T09:10:13.989Z,1009.5
2018-05-03T09:11:16.406Z,1009.4
2018-05-03T09:12:19.177Z,1009.7
2018-05-03T09:13:21.448Z,1009.8
2018-05-03T09:14:23.679Z,1009.8
2018-05-03T09:15:26.096Z,1009.9
2018-05-03T09:16:28.449Z,1009.8
2018-05-03T09:17:30.620Z,1009.3
2018-05-03T09:18:33.131Z,1009.2
2018-05-03T09:19:35.316Z,1009.2
2018-05-03T09:20:37.550Z,1009.3
2018-05-03T09:21:39.539Z,1009.4
2018-05-03T09:22:41.891Z,1009.7
2018-05-03T09:23:44.086Z,1010.0
2018-05-03T09:24:46.208Z,1009.9
2018-05-03T09:25:48.247Z,1009.9
2018-05-03T09:26:50.876Z,1009.9
2018-05-03T09:27:52.851Z,1009.7
2018-05-03T09:28:55.220Z,1009.5
2018-05-03T09:29:57.433Z,1009.7
2018-05-03T09:30:59.509Z,1009.5
2018-05-03T09:32:01.553Z,1009.5
2018-05-03T09:33:03.882Z,1009.4
2018-05-03T09:34:06.248Z,1009.6
2018-05-03T09:35:08.494Z,1009.6
2018-05-03T09:36:10.874Z,1009.7
2018-05-03T09:37:13.607Z,1009.9
2018-05-03T09:38:15.791Z,1009.8
2018-05-03T09:39:18.051Z,1009.6
2018-05-03T09:40:20.110Z,1009.6
2018-05-03T09:41:22.413Z,1009.7
2018-05-03T09:42:24.422Z,1010.1
2018-05-03T09:43:26.648Z,1010.0
2018-05-03T09:44:28.846Z,1009.8
2018-05-03T09:45:31.156Z,1010.1
2018-05-03T09:46:33.454Z,1010.1
2018-05-03T09:47:35.720Z,1010.1
2018-05-03T09:49:28.179Z,1010.1
2018-05-03T09:50:30.044Z,1010.0
2018-05-03T09:51:32.197Z,1010.1
2018-05-03T09:52:34.614Z,1009.9
2018-05-03T09:53:36.600Z,1010.0
2018-05-03T09:54:38.544Z,1010.1
2018-05-03T09:55:40.997Z,1010.1
2018-05-03T09:56:42.978Z,1010.1
2018-05-03T09:57:45.292Z,1009.9
2018-05-03T09:58:47.508Z,1009.8
2018-05-03T09:59:49.453Z,1009.7
2018-05-03T10:00:51.808Z,1009.7
2018-05-03T10:01:53.776Z,1009.8
2018-05-03T10:02:55.919Z,1009.8
2018-05-03T10:03:58.127Z,1009.9
2018-05-03T10:05:00.861Z,1009.8
2018-05-03T10:06:03.034Z,1009.8
2018-05-03T10:07:05.351Z,1009.7
2018-05-03T10:08:07.439Z,1009.6
2018-05-03T10:09:09.449Z,1009.6
2018-05-03T10:10:11.524Z,1009.7
2018-05-03T10:11:13.688Z,1009.7
2018-05-03T10:12:17.287Z,1009.9
2018-05-03T10:13:19.607Z,1009.9
2018-05-03T10:14:21.551Z,1009.8
2018-05-03T10:15:23.579Z,1010.1
2018-05-03T10:16:25.971Z,1010.1
2018-05-03T10:17:28.210Z,1010.1
2018-05-03T10:18:30.284Z,1010.1
2018-05-03T10:19:32.467Z,1010.1
2018-05-03T10:20:34.805Z,1010.0
2018-05-03T10:21:37.050Z,1009.9
2018-05-03T10:22:39.724Z,1009.8
2018-05-03T10:23:41.756Z,1009.8
2018-05-03T10:24:44.066Z,1009.7
2018-05-03T10:25:46.306Z,1009.8
2018-05-03T10:26:48.804Z,1009.7
2018-05-03T10:27:50.895Z,1009.8
2018-05-03T10:28:53.125Z,1009.7
2018-05-03T10:29:55.179Z,1009.7
2018-05-03T10:30:57.526Z,1009.7
2018-05-03T10:31:59.688Z,1009.7
2018-05-03T10:33:01.723Z,1009.7
2018-05-03T10:34:03.905Z,1009.8
2018-05-03T10:35:06.225Z,1009.8
2018-05-03T10:36:08.311Z,1009.7
2018-05-03T10:37:10.425Z,1009.7
2018-05-03T10:38:12.832Z,1009.7
2018-05-03T10:39:14.918Z,1009.6
2018-05-03T10:40:16.805Z,1009.6
2018-05-03T10:41:18.970Z,1009.6
2018-05-03T10:42:21.362Z,1009.7
2018-05-03T10:43:23.469Z,1009.8
2018-05-03T10:44:25.379Z,1009.7
2018-05-03T10:45:27.297Z,1009.8
2018-05-03T10:46:29.769Z,1009.7
2018-05-03T10:47:32.011Z,1009.7
2018-05-03T10:48:34.352Z,1009.7
2018-05-03T10:49:36.526Z,1009.6
2018-05-03T10:50:38.787Z,1009.6
2018-05-03T10:51:40.811Z,1009.6
2018-05-03T10:52:42.942Z,1009.7
2018-05-03T10:53:44.983Z,1009.6
2018-05-03T10:54:47.268Z,1009.5
2018-05-03T10:55:49.138Z,1009.4
2018-05-03T10:56:51.002Z,1009.5
2018-05-03T10:57:53.071Z,1009.5
2018-05-03T10:58:55.326Z,1009.5
2018-05-03T10:59:57.306Z,1009.7
2018-05-03T11:00:59.543Z,1009.6
2018-05-03T11:02:01.774Z,1009.6
2018-05-03T11:03:04.117Z,1009.5
2018-05-03T11:04:06.658Z,1009.4
2018-05-03T11:05:08.623Z,1009.5
2018-05-03T11:06:10.754Z,1009.5
2018-05-03T11:07:12.829Z,1009.4
2018-05-03T11:08:15.733Z,1009.5
2018-05-03T11:09:17.668Z,1009.4
2018-05-03T11:10:19.621Z,1009.5
2018-05-03T11:11:21.606Z,1009.4
2018-05-03T11:12:23.626Z,1009.5
2018-05-03T11:13:25.627Z,1009.5
2018-05-03T11:14:27.879Z,1009.5
2018-05-03T11:15:30.012Z,1009.5
2018-05-03T11:16:32.304Z,1009.6
2018-05-03T11:17:34.186Z,1009.7
2018-05-03T11:18:36.442Z,1009.5
2018-05-03T11:19:38.606Z,1009.5
2018-05-03T11:20:41.246Z,1009.6
2018-05-03T11:21:43.423Z,1009.7
2018-05-03T11:22:45.361Z,1009.7
2018-05-03T11:23:47.869Z,1009.6
2018-05-03T11:24:50.275Z,1009.6
2018-05-03T11:25:52.177Z,1009.6
2018-05-03T11:26:54.048Z,1009.6
2018-05-03T11:27:56.353Z,1009.5
2018-05-03T11:28:58.567Z,1009.6
2018-05-03T11:30:00.875Z,1009.8
2018-05-03T11:31:03.212Z,1009.8
2018-05-03T11:32:05.368Z,1009.7
2018-05-03T11:33:07.505Z,1009.8
2018-05-03T11:34:09.806Z,1009.8
2018-05-03T11:35:12.045Z,1009.8
2018-05-03T11:36:14.129Z,1009.7
2018-05-03T11:37:16.979Z,1009.7
2018-05-03T11:38:18.968Z,1009.7
2018-05-03T11:39:20.890Z,1009.7
2018-05-03T11:40:23.173Z,1009.7
2018-05-03T11:41:25.306Z,1009.6
2018-05-03T11:42:27.434Z,1009.6
2018-05-03T11:43:29.353Z,1009.6
2018-05-03T11:44:31.274Z,1009.6
2018-05-03T11:45:33.491Z,1009.6
2018-05-03T11:46:35.348Z,1009.7
2018-05-03T11:47:37.742Z,1009.6
2018-05-03T11:48:39.719Z,1009.6
2018-05-03T11:49:41.823Z,1009.5
2018-05-03T11:50:44.122Z,1009.7
2018-05-03T11:51:46.405Z,1009.8
2018-05-03T11:52:49.267Z,1009.9
2018-05-03T11:53:51.179Z,1010.0
2018-05-03T11:54:53.347Z,1009.9
2018-05-03T11:55:55.484Z,1009.9
2018-05-03T11:56:57.420Z,1010.0
2018-05-03T11:57:59.327Z,1009.9
2018-05-03T11:59:01.488Z,1009.9
2018-05-03T12:00:03.524Z,1009.9
2018-05-03T12:01:05.910Z,1009.8
2018-05-03T12:02:07.914Z,1009.8
2018-05-03T12:03:10.197Z,1009.9
2018-05-03T12:04:12.333Z,1009.9
2018-05-03T12:05:14.299Z,1009.8
2018-05-03T12:06:16.455Z,1009.8
2018-05-03T12:07:18.440Z,1009.8
2018-05-03T12:08:20.348Z,1009.8
2018-05-03T12:09:22.476Z,1009.7
2018-05-03T12:10:24.562Z,1009.7
2018-05-03T12:11:26.727Z,1009.7
2018-05-03T12:12:28.769Z,1009.7
2018-05-03T12:13:31.006Z,1009.7
2018-05-03T12:14:33.181Z,1009.8
2018-05-03T12:15:35.425Z,1009.8
2018-05-03T12:16:37.429Z,1009.9
2018-05-03T12:17:39.335Z,1009.9
2018-05-03T12:18:41.410Z,1009.8
2018-05-03T12:19:43.682Z,1009.8
2018-05-03T12:20:45.541Z,1009.9
2018-05-03T12:21:47.681Z,1009.9
2018-05-03T12:22:52.520Z,1009.9
2018-05-03T12:23:54.889Z,1010.0
2018-05-03T12:24:56.688Z,1010.0
2018-05-03T12:25:58.888Z,1010.0
2018-05-03T12:27:01.201Z,1009.9
2018-05-03T12:28:03.101Z,1009.9
2018-05-03T12:29:06.161Z,1009.9
2018-05-03T12:30:08.272Z,1009.9
2018-05-03T12:31:10.229Z,1010.0
2018-05-03T12:32:12.114Z,1009.9
2018-05-03T12:33:14.392Z,1010.0
2018-05-03T12:34:16.495Z,1010.0
2018-05-03T12:35:18.380Z,1010.1
2018-05-03T12:36:20.644Z,1010.1
2018-05-03T12:37:22.890Z,1010.1
2018-05-03T12:38:25.004Z,1010.1
2018-05-03T12:39:26.852Z,1010.1
2018-05-03T12:40:28.796Z,1010.1
2018-05-03T12:41:30.979Z,1010.0
2018-05-03T12:42:32.919Z,1010.1
2018-05-03T12:43:35.258Z,1010.2
2018-05-03T12:44:37.118Z,1010.2
2018-05-03T12:45:39.368Z,1010.1
2018-05-03T12:46:41.607Z,1010.1
2018-05-03T12:47:43.512Z,1010.2
2018-05-03T12:48:45.700Z,1010.3
2018-05-03T12:49:48.248Z,1010.2
2018-05-03T12:50:50.172Z,1010.2
2018-05-03T12:51:52.272Z,1010.0
2018-05-03T12:52:54.387Z,1010.0
2018-05-03T12:53:56.919Z,1010.1
2018-05-03T12:54:59.115Z,1010.2
2018-05-03T12:56:01.212Z,1010.2
2018-05-03T12:57:03.534Z,1010.1
2018-05-03T12:58:05.840Z,1010.1
2018-05-03T12:59:07.701Z,1010.1
2018-05-03T13:00:09.577Z,1010.1
2018-05-03T13:01:11.849Z,1010.0